.
WxDataArchive / Data Records for 2007-08-30
2007-08-29 August 2007 2007-08-31

Data Records for Thursday, 30 August 2007

Time	Temp	Chill	HIndex	Humid	Dewpt	 Wind 	HiWind	WindDir	Rain 	Barom 
-----	----	-----	------	-----	-----	------	------	-------	-----	----- 
00:00	72.3	72.3	72.3	82	66.5	0	1	292	0.00	29.975 
00:05	72.1	72.1	72.1	83	66.6	0	0	---	0.00	29.976 
00:10	72.0	72.0	72.0	84	66.9	0	1	292	0.00	29.979 
00:15	71.8	71.8	71.8	84	66.7	0	1	292	0.00	29.976 
00:20	71.8	71.8	71.8	84	66.7	0	1	292	0.00	29.975 
00:25	71.6	71.6	71.6	85	66.8	0	1	292	0.00	29.975 
00:30	71.5	71.5	71.5	86	67.1	0	1	292	0.00	29.974 
00:35	71.3	71.3	71.3	86	66.9	0	1	292	0.00	29.974 
00:40	71.1	71.1	71.1	86	66.7	0	1	292	0.00	29.975 
00:45	71.1	71.1	71.1	87	67.0	0	1	292	0.00	29.979 
00:50	70.9	70.9	70.9	87	66.8	0	1	292	0.00	29.980 
00:55	70.9	70.9	70.9	87	66.8	0	1	292	0.00	29.979 
01:00	70.8	70.8	70.8	88	67.1	0	1	292	0.00	29.979 
01:05	70.8	70.8	70.8	88	67.1	0	1	292	0.00	29.979 
01:10	70.6	70.6	70.6	88	66.9	0	1	292	0.00	29.981 
01:15	70.6	70.6	70.6	88	66.9	0	1	292	0.00	29.981 
01:20	70.4	70.4	70.4	89	67.0	0	1	292	0.00	29.984 
01:25	70.4	70.4	70.4	89	67.0	0	0	---	0.00	29.988 
01:30	70.4	70.4	70.4	89	67.0	0	1	292	0.00	29.987 
01:35	70.4	70.4	70.4	89	67.0	0	1	292	0.00	29.984 
01:40	70.3	70.3	70.3	89	66.9	0	1	292	0.00	29.982 
01:45	70.3	70.3	70.3	89	66.9	0	1	292	0.00	29.985 
01:50	70.3	70.3	70.3	89	66.9	0	1	292	0.00	29.988 
01:55	70.3	70.3	70.3	90	67.2	0	0	---	0.00	29.991 
02:00	70.3	70.3	70.3	90	67.2	0	0	---	0.00	29.992 
02:05	70.3	70.3	70.3	90	67.2	0	1	292	0.00	29.991 
02:10	70.3	70.3	70.3	90	67.2	0	1	292	0.00	29.990 
02:15	70.3	70.3	70.3	90	67.2	0	1	292	0.00	29.990 
02:20	70.3	70.3	70.3	90	67.2	0	1	292	0.00	29.992 
02:25	70.3	70.3	70.3	90	67.2	0	1	292	0.00	29.994 
02:30	70.1	70.1	70.1	90	67.0	0	1	292	0.00	29.995 
02:35	70.1	70.1	70.1	90	67.0	0	0	---	0.00	29.998 
02:40	70.1	70.1	70.1	91	67.3	0	0	---	0.00	30.000 
02:45	70.1	70.1	70.1	91	67.3	0	1	292	0.00	30.003 
02:50	70.1	70.1	70.1	91	67.3	0	0	---	0.00	30.004 
02:55	70.1	70.1	70.1	90	67.0	0	0	---	0.00	30.005 
03:00	70.1	70.1	70.1	91	67.3	0	0	---	0.00	30.005 
03:05	70.1	70.1	70.1	91	67.3	0	0	---	0.00	30.005 
03:10	70.1	70.1	70.1	91	67.3	0	0	---	0.00	30.001 
03:15	70.1	70.1	70.1	91	67.3	0	0	---	0.00	29.998 
03:20	69.9	69.9	69.9	91	67.1	0	0	---	0.00	29.998 
03:25	69.9	69.9	69.9	91	67.1	0	0	---	0.00	29.997 
03:30	69.8	69.8	69.8	91	67.0	0	0	---	0.00	29.998 
03:35	69.8	69.8	69.8	92	67.4	0	1	292	0.00	30.000 
03:40	69.8	69.8	69.8	92	67.4	0	0	---	0.00	30.002 
03:45	69.8	69.8	69.8	92	67.4	0	0	---	0.00	30.002 
03:50	69.8	69.8	69.8	92	67.4	0	0	---	0.00	30.003 
03:55	69.8	69.8	69.8	92	67.4	0	0	---	0.00	30.006 
04:00	69.8	69.8	69.8	92	67.4	0	1	292	0.00	30.006 
04:05	69.9	69.9	69.9	92	67.5	0	0	---	0.00	30.007 
04:10	69.9	69.9	69.9	92	67.5	0	1	292	0.00	30.005 
04:15	69.9	69.9	69.9	92	67.5	0	1	292	0.00	29.997 
04:20	69.9	69.9	69.9	92	67.5	0	0	---	0.00	30.002 
04:25	70.1	70.1	70.1	92	67.7	0	2	292	0.00	30.002 
04:30	70.1	70.1	70.1	92	67.7	1	4	112	0.00	29.999 
04:35	70.1	70.1	70.1	92	67.7	1	4	112	0.00	29.998 
04:40	70.1	70.1	70.1	91	67.3	0	2	112	0.00	29.996 
04:45	70.1	70.1	70.1	91	67.3	1	4	112	0.00	29.995 
04:50	69.9	69.9	69.9	91	67.1	0	1	112	0.00	29.996 
04:55	69.9	69.9	69.9	91	67.1	0	1	112	0.00	30.002 
05:00	69.9	69.9	69.9	92	67.5	0	2	112	0.00	30.005 
05:05	69.9	69.9	69.9	92	67.5	1	5	90	0.00	30.008 
05:10	70.1	70.1	70.1	91	67.3	0	2	90	0.00	30.009 
05:15	70.1	70.1	70.1	91	67.3	0	3	90	0.00	30.009 
05:20	70.1	70.1	70.1	91	67.3	0	2	112	0.00	30.010 
05:25	70.1	70.1	70.1	91	67.3	1	5	135	0.00	30.010 
05:30	70.1	70.1	70.1	92	67.7	0	3	180	0.00	30.010 
05:35	70.1	70.1	70.1	91	67.3	0	2	135	0.00	30.011 
05:40	69.9	69.9	69.9	91	67.1	0	5	315	0.00	30.012 
05:45	69.9	69.9	69.9	91	67.1	0	1	292	0.00	30.014 
05:50	69.9	69.9	69.9	91	67.1	0	4	292	0.00	30.017 
05:55	69.9	69.9	69.9	91	67.1	0	4	112	0.00	30.021 
06:00	69.9	69.9	69.9	90	66.8	0	3	135	0.00	30.022 
06:05	69.9	69.9	69.9	89	66.5	1	3	112	0.00	30.026 
06:10	69.9	69.9	69.9	90	66.8	1	9	112	0.00	30.027 
06:15	69.8	69.8	69.8	90	66.7	3	10	90	0.00	30.029 
06:20	69.6	69.6	69.6	91	66.8	1	5	112	0.00	30.031 
06:25	69.3	69.3	69.3	92	66.9	2	5	90	0.00	30.037 
06:30	68.8	68.8	68.8	92	66.4	2	5	112	0.00	30.037 
06:35	68.4	68.4	68.4	93	66.3	1	3	68	0.00	30.039 
06:40	68.3	68.3	68.3	93	66.2	1	4	90	0.00	30.042 
06:45	67.9	67.9	67.9	93	65.8	1	5	112	0.00	30.044 
06:50	67.6	67.6	67.6	93	65.5	1	4	135	0.00	30.046 
06:55	67.4	67.4	67.4	92	65.0	2	7	135	0.00	30.047 
07:00	67.3	67.3	67.3	92	64.9	1	4	135	0.00	30.048 
07:05	67.1	67.1	67.1	90	64.1	1	4	158	0.00	30.051 
07:10	67.3	67.3	67.3	90	64.3	1	5	135	0.00	30.051 
07:15	67.4	67.4	67.4	90	64.4	0	3	90	0.00	30.051 
07:20	67.6	67.6	67.6	89	64.2	0	2	112	0.00	30.049 
07:25	67.8	67.8	67.8	89	64.4	0	3	112	0.00	30.049 
07:30	68.1	68.1	68.1	88	64.4	0	2	135	0.00	30.052 
07:35	68.3	68.3	68.3	87	64.3	0	4	135	0.00	30.052 
07:40	68.4	68.4	68.4	85	63.7	1	4	135	0.00	30.053 
07:45	68.6	68.6	68.6	84	63.6	1	7	45	0.00	30.055 
07:50	68.8	68.8	68.8	83	63.4	1	3	135	0.00	30.054 
07:55	68.8	68.8	68.8	81	62.7	1	3	68	0.00	30.055 
08:00	68.8	68.8	68.8	80	62.4	0	2	22	0.00	30.058 
08:05	68.8	68.8	68.8	81	62.7	0	3	90	0.00	30.062 
08:10	68.8	68.8	68.8	80	62.4	1	4	90	0.00	30.063 
08:15	68.8	68.8	68.8	80	62.4	0	2	90	0.00	30.065 
08:20	68.8	68.8	68.8	80	62.4	0	4	90	0.00	30.065 
08:25	68.9	68.9	68.9	80	62.5	0	3	68	0.00	30.066 
08:30	69.1	69.1	69.1	79	62.3	1	3	112	0.00	30.066 
08:35	69.1	69.1	69.1	80	62.7	1	5	338	0.00	30.066 
08:40	69.4	69.4	69.4	80	63.0	1	8	112	0.00	30.067 
08:45	69.6	69.6	69.6	79	62.8	1	4	112	0.00	30.067 
08:50	69.8	69.8	69.8	81	63.7	0	3	112	0.00	30.066 
08:55	69.9	69.9	69.9	82	64.1	0	2	135	0.00	30.068 
09:00	69.8	69.8	69.8	83	64.4	0	1	158	0.00	30.070 
09:05	69.6	69.6	69.6	84	64.5	0	2	135	0.00	30.070 
09:10	69.4	69.4	69.4	83	64.0	0	1	315	0.00	30.070 
09:15	69.4	69.4	69.4	84	64.3	0	1	315	0.00	30.071 
09:20	69.4	69.4	69.4	84	64.3	1	2	112	0.00	30.073 
09:25	69.4	69.4	69.4	83	64.0	1	6	112	0.00	30.074 
09:30	69.6	69.6	69.6	82	63.9	0	3	270	0.00	30.074 
09:35	69.6	69.6	69.6	82	63.9	1	3	68	0.00	30.075 
09:40	69.9	69.9	69.9	81	63.8	1	3	90	0.00	30.078 
09:45	70.4	70.4	70.4	81	64.3	1	4	135	0.00	30.080 
09:50	70.6	70.6	70.6	83	65.2	0	3	135	0.00	30.080 
09:55	70.6	70.6	70.6	80	64.1	1	3	135	0.00	30.081 
10:00	70.6	70.6	70.6	80	64.1	0	2	135	0.00	30.081 
10:05	70.8	70.8	70.8	79	64.0	1	4	112	0.00	30.083 
10:10	70.9	70.9	70.9	78	63.7	1	4	112	0.00	30.083 
10:15	71.1	71.1	71.1	78	63.9	1	4	68	0.00	30.085 
10:20	70.9	70.9	70.9	77	63.3	1	4	68	0.00	30.085 
10:25	70.9	70.9	70.9	77	63.3	1	7	135	0.00	30.086 
10:30	70.9	70.9	70.9	78	63.7	2	6	112	0.00	30.086 
10:35	70.9	70.9	70.9	76	62.9	2	5	112	0.00	30.086 
10:40	71.5	71.5	71.5	76	63.5	2	7	90	0.00	30.086 
10:45	71.8	71.8	71.8	75	63.4	2	6	90	0.00	30.084 
10:50	72.5	72.5	72.5	74	63.7	2	5	135	0.00	30.085 
10:55	72.5	72.5	72.5	74	63.7	2	5	45	0.00	30.086 
11:00	72.3	72.3	72.3	74	63.5	1	5	135	0.00	30.088 
11:05	72.1	72.1	72.1	73	63.0	2	5	112	0.00	30.091 
11:10	72.5	72.5	72.5	73	63.3	2	6	90	0.00	30.090 
11:15	73.5	73.5	73.5	70	63.1	2	4	90	0.00	30.089 
11:20	74.2	74.2	74.2	68	62.9	2	4	112	0.00	30.088 
11:25	74.0	74.0	74.0	69	63.2	1	3	112	0.00	30.091 
11:30	73.5	73.5	73.5	70	63.1	0	2	112	0.00	30.089 
11:35	72.7	72.7	72.7	70	62.3	0	3	158	0.00	30.090 
11:40	72.5	72.5	72.5	71	62.5	0	3	112	0.00	30.090 
11:45	72.3	72.3	72.3	72	62.8	1	5	112	0.00	30.093 
11:50	72.0	72.0	72.0	72	62.5	1	6	292	0.00	30.092 
11:55	71.8	71.8	71.8	73	62.7	1	4	292	0.00	30.094 
12:00	72.0	72.0	72.0	74	63.2	1	3	22	0.00	30.092 
12:05	72.1	72.1	72.1	73	63.0	1	2	68	0.00	30.092 
12:10	72.3	72.3	72.3	73	63.1	1	3	292	0.00	30.088 
12:15	72.1	72.1	72.1	73	63.0	1	2	292	0.00	30.088 
12:20	72.5	72.5	72.5	73	63.3	1	3	292	0.00	30.086 
12:25	73.5	73.5	73.5	73	64.3	0	3	338	0.00	30.082 
12:30	74.7	74.7	74.7	68	63.4	1	3	45	0.00	30.079 
12:35	75.3	75.3	77.2	67	63.6	1	3	22	0.00	30.078 
12:40	75.6	75.6	77.6	63	62.1	1	5	45	0.00	30.075 
12:45	75.3	75.3	77.3	65	62.7	0	2	292	0.00	30.077 
12:50	74.7	74.7	74.7	63	61.2	0	1	292	0.00	30.077 
12:55	74.7	74.7	74.7	64	61.7	1	5	90	0.00	30.077 
13:00	75.4	75.4	77.5	62	61.5	1	3	90	0.00	30.076 
13:05	75.4	75.4	77.6	61	61.0	1	6	135	0.00	30.078 
13:10	75.1	75.1	77.4	61	60.7	2	4	112	0.00	30.077 
13:15	75.1	75.1	77.1	65	62.5	1	3	112	0.00	30.079 
13:20	75.1	75.1	77.2	64	62.1	1	4	68	0.00	30.079 
13:25	76.0	76.0	77.9	63	62.5	2	6	112	0.00	30.077 
13:30	76.0	76.0	78.0	60	61.1	2	5	112	0.00	30.077 
13:35	75.6	75.6	77.7	60	60.7	2	5	112	0.00	30.076 
13:40	75.8	75.8	77.7	65	63.2	1	3	90	0.00	30.074 
13:45	76.0	76.0	78.0	60	61.1	2	5	112	0.00	30.069 
13:50	76.3	76.3	78.2	62	62.3	1	4	112	0.00	30.069 
13:55	76.7	76.7	78.5	59	61.3	1	4	112	0.00	30.067 
14:00	77.4	77.4	79.2	64	64.2	1	3	112	0.00	30.066 
14:05	77.7	77.7	79.4	60	62.7	1	3	112	0.00	30.064 
14:10	77.7	77.7	79.3	57	61.2	1	5	135	0.00	30.062 
14:15	77.6	77.6	79.2	57	61.1	1	4	90	0.00	30.061 
14:20	76.7	76.7	78.5	59	61.3	1	3	112	0.00	30.062 
14:25	75.8	75.8	77.8	61	61.4	0	1	112	0.00	30.062 
14:30	75.8	75.8	77.9	59	60.4	0	3	270	0.00	30.058 
14:35	76.8	76.8	78.6	62	62.8	0	1	270	0.00	30.054 
14:40	77.7	77.7	79.4	60	62.7	1	5	112	0.00	30.051 
14:45	77.6	77.6	79.2	58	61.6	1	5	90	0.00	30.050 
14:50	76.8	76.8	78.6	58	60.9	0	1	68	0.00	30.051 
14:55	76.7	76.7	78.5	57	60.3	1	4	112	0.00	30.051 
15:00	77.0	77.0	78.8	59	61.6	1	3	270	0.00	30.051 
15:05	77.2	77.2	78.9	56	60.3	1	3	248	0.00	30.049 
15:10	77.2	77.2	78.9	58	61.3	1	3	270	0.00	30.049 
15:15	77.0	77.0	78.7	56	60.1	1	2	315	0.00	30.048 
15:20	77.4	77.4	79.1	59	61.9	0	2	315	0.00	30.046 
15:25	77.9	77.9	79.4	56	60.9	1	5	90	0.00	30.044 
15:30	77.6	77.6	79.2	55	60.1	1	4	90	0.00	30.043 
15:35	77.0	77.0	78.7	54	59.1	0	2	90	0.00	30.044 
15:40	76.5	76.5	78.4	58	60.6	0	2	180	0.00	30.043 
15:45	75.8	75.8	77.9	58	59.9	0	1	180	0.00	30.042 
15:50	75.6	75.6	77.8	57	59.3	0	2	338	0.00	30.039 
15:55	76.0	76.0	78.1	57	59.6	1	4	112	0.00	30.038 
16:00	76.1	76.1	78.1	58	60.2	1	4	90	0.00	30.038 
16:05	75.6	75.6	77.7	60	60.7	0	0	---	0.00	30.038 
16:10	75.4	75.4	77.6	59	60.1	0	3	180	0.00	30.038 
16:15	75.3	75.3	77.6	57	59.0	1	3	112	0.00	30.038 
16:20	75.3	75.3	77.7	56	58.5	0	3	248	0.00	30.037 
16:25	75.4	75.4	77.8	54	57.6	0	3	45	0.00	30.036 
16:30	75.6	75.6	77.8	55	58.3	0	2	45	0.00	30.036 
16:35	75.6	75.6	77.9	54	57.8	1	3	315	0.00	30.033 
16:40	75.8	75.8	78.0	54	57.9	1	2	135	0.00	30.030 
16:45	75.8	75.8	78.0	53	57.4	0	3	158	0.00	30.027 
16:50	75.8	75.8	78.0	54	57.9	0	2	90	0.00	30.029 
16:55	75.6	75.6	77.9	54	57.8	0	3	90	0.00	30.026 
17:00	75.4	75.4	77.7	56	58.6	0	1	315	0.00	30.029 
17:05	75.4	75.4	77.7	56	58.6	0	4	315	0.00	30.027 
17:10	75.3	75.3	77.7	56	58.5	1	3	270	0.00	30.023 
17:15	75.1	75.1	77.6	55	57.8	0	1	270	0.00	30.024 
17:20	74.9	74.9	74.9	56	58.1	0	3	68	0.00	30.024 
17:25	74.2	74.2	74.2	58	58.5	0	1	45	0.00	30.023 
17:30	73.5	73.5	73.5	58	57.8	0	1	45	0.00	30.023 
17:35	73.0	73.0	73.0	60	58.3	0	1	45	0.00	30.024 
17:40	72.7	72.7	72.7	60	58.0	0	1	45	0.00	30.024 
17:45	73.0	73.0	73.0	58	57.3	0	3	45	0.00	30.024 
17:50	73.5	73.5	73.5	58	57.8	0	1	292	0.00	30.023 
17:55	73.7	73.7	73.7	58	58.0	0	4	270	0.00	30.022 
18:00	73.7	73.7	73.7	57	57.5	0	2	270	0.00	30.022 
18:05	73.7	73.7	73.7	59	58.5	0	1	270	0.00	30.025 
18:10	73.5	73.5	73.5	58	57.8	0	2	270	0.00	30.025 
18:15	73.5	73.5	73.5	58	57.8	1	5	68	0.00	30.026 
18:20	73.5	73.5	73.5	57	57.3	0	3	135	0.00	30.025 
18:25	73.3	73.3	73.3	59	58.1	0	1	112	0.00	30.025 
18:30	73.0	73.0	73.0	60	58.3	0	1	112	0.00	30.025 
18:35	72.7	72.7	72.7	60	58.0	0	1	112	0.00	30.027 
18:40	72.5	72.5	72.5	60	57.8	0	2	112	0.00	30.028 
18:45	72.1	72.1	72.1	59	57.0	0	1	112	0.00	30.031 
18:50	71.8	71.8	71.8	61	57.6	0	1	112	0.00	30.034 
18:55	71.5	71.5	71.5	62	57.8	0	0	---	0.00	30.034 
19:00	71.1	71.1	71.1	62	57.4	0	0	---	0.00	30.034 
19:05	70.8	70.8	70.8	63	57.6	0	0	---	0.00	30.033 
19:10	70.4	70.4	70.4	64	57.6	0	0	---	0.00	30.036 
19:15	69.9	69.9	69.9	64	57.2	0	0	---	0.00	30.038 
19:20	69.6	69.6	69.6	65	57.3	0	0	---	0.00	30.039 
19:25	69.3	69.3	69.3	65	57.0	0	0	---	0.00	30.040 
19:30	68.9	68.9	68.9	66	57.1	0	0	---	0.00	30.040 
19:35	68.6	68.6	68.6	66	56.8	0	0	---	0.00	30.041 
19:40	68.4	68.4	68.4	67	57.0	0	1	112	0.00	30.043 
19:45	68.1	68.1	68.1	67	56.7	0	0	---	0.00	30.043 
19:50	67.9	67.9	67.9	68	56.9	0	0	---	0.00	30.045 
19:55	67.6	67.6	67.6	69	57.1	0	0	---	0.00	30.047 
20:00	67.3	67.3	67.3	69	56.8	0	0	---	0.00	30.052 
20:05	67.1	67.1	67.1	69	56.6	0	0	---	0.00	30.053 
20:10	66.9	66.9	66.9	70	56.8	0	0	---	0.00	30.055 
20:15	66.8	66.8	66.8	71	57.1	0	0	---	0.00	30.058 
20:20	66.4	66.4	66.4	71	56.7	0	0	---	0.00	30.058 
20:25	66.3	66.3	66.3	72	57.0	0	0	---	0.00	30.059 
20:30	66.0	66.0	66.0	73	57.1	0	0	---	0.00	30.060 
20:35	65.8	65.8	65.8	73	56.9	0	0	---	0.00	30.064 
20:40	65.6	65.6	65.6	73	56.7	0	0	---	0.00	30.068 
20:45	65.3	65.3	65.3	74	56.8	0	0	---	0.00	30.072 
20:50	65.2	65.2	65.2	74	56.7	0	0	---	0.00	30.074 
20:55	64.8	64.8	64.8	74	56.3	0	0	---	0.00	30.075 
21:00	64.8	64.8	64.8	74	56.3	0	0	---	0.00	30.076 
21:05	64.7	64.7	64.7	74	56.2	0	0	---	0.00	30.074 
21:10	64.5	64.5	64.5	75	56.4	0	0	---	0.00	30.075 
21:15	64.3	64.3	64.3	74	55.8	0	1	112	0.00	30.075 
21:20	64.3	64.3	64.3	74	55.8	0	1	112	0.00	30.077 
21:25	64.2	64.2	64.2	74	55.7	0	0	---	0.00	30.077 
21:30	64.0	64.0	64.0	74	55.5	0	2	112	0.00	30.077 
21:35	64.0	64.0	64.0	73	55.2	0	1	112	0.00	30.079 
21:40	64.0	64.0	64.0	71	54.4	0	3	112	0.00	30.080 
21:45	64.2	64.2	64.2	71	54.6	0	2	112	0.00	30.080 
21:50	64.2	64.2	64.2	70	54.2	0	2	112	0.00	30.082 
21:55	64.2	64.2	64.2	69	53.8	0	2	112	0.00	30.079 
22:00	64.2	64.2	64.2	69	53.8	0	1	112	0.00	30.080 
22:05	64.0	64.0	64.0	69	53.6	0	2	68	0.00	30.082 
22:10	63.9	63.9	63.9	69	53.5	0	4	68	0.00	30.083 
22:15	63.9	63.9	63.9	68	53.1	0	2	68	0.00	30.083 
22:20	63.9	63.9	63.9	68	53.1	0	2	90	0.00	30.085 
22:25	63.7	63.7	63.7	69	53.3	0	1	90	0.00	30.085 
22:30	63.5	63.5	63.5	68	52.7	0	3	90	0.00	30.084 
22:35	63.5	63.5	63.5	69	53.1	0	3	112	0.00	30.084 
22:40	63.4	63.4	63.4	69	53.0	0	3	135	0.00	30.085 
22:45	63.2	63.2	63.2	70	53.2	0	1	135	0.00	30.086 
22:50	63.1	63.1	63.1	70	53.2	0	2	135	0.00	30.087 
22:55	62.9	62.9	62.9	71	53.3	0	1	68	0.00	30.086 
23:00	62.9	62.9	62.9	70	53.0	1	3	68	0.00	30.083 
23:05	62.9	62.9	62.9	70	53.0	0	3	112	0.00	30.082 
23:10	62.9	62.9	62.9	70	53.0	0	4	90	0.00	30.082 
23:15	62.7	62.7	62.7	71	53.2	0	1	90	0.00	30.083 
23:20	62.4	62.4	62.4	71	52.9	0	2	90	0.00	30.081 
23:25	62.3	62.3	62.3	71	52.8	0	2	90	0.00	30.081 
23:30	62.1	62.1	62.1	71	52.6	0	2	112	0.00	30.083 
23:35	62.0	62.0	62.0	71	52.5	1	4	90	0.00	30.084 
23:40	62.0	62.0	62.0	71	52.5	1	3	112	0.00	30.084 
23:45	62.0	62.0	62.0	71	52.5	0	3	112	0.00	30.085 
23:50	61.6	61.6	61.6	71	52.1	0	1	112	0.00	30.084 
23:55	61.6	61.6	61.6	72	52.5	0	3	90	0.00	30.084 

CoCoRaHS
IN-AL-39
A2 Web Hosting
Creative Commons License
GoDaddy
Look for:

loaded 2017-10-16 18:16:38 • last modified 2010-11-18 10:43:29
Privacy PolicyDisclaimer
• wx.awcolley.com is powered by PmWiki v.2002016 •
• all content (unless otherwise noted) © 2017 A W Colley